createdAt,value
2022-09-12T00:03:01.713Z,100391.94
2022-09-12T00:08:04.776Z,100384.31
2022-09-12T00:13:07.760Z,100381.66
2022-09-12T00:18:15.806Z,100373.78
2022-09-12T00:23:18.403Z,100371.34
2022-09-12T00:28:20.979Z,100364.47
2022-09-12T00:33:25.178Z,100374.97
2022-09-12T00:38:27.926Z,100370.56
2022-09-12T00:43:37.230Z,100375.88
2022-09-12T00:48:44.270Z,100372.22
2022-09-12T00:53:49.158Z,100374.50
2022-09-12T00:58:54.996Z,100371.56
2022-09-12T01:03:59.349Z,100368.50
2022-09-12T01:09:03.971Z,100362.75
2022-09-12T01:14:07.010Z,100359.88
2022-09-12T01:19:26.733Z,100353.50
2022-09-12T01:24:47.688Z,100342.66
2022-09-12T01:30:25.931Z,100349.06
2022-09-12T01:35:33.426Z,100350.06
2022-09-12T01:40:42.276Z,100359.44
2022-09-12T01:45:47.717Z,100353.69
2022-09-12T01:50:54.721Z,100349.41
2022-09-12T01:56:02.737Z,100342.63
2022-09-12T02:01:08.652Z,100350.94
2022-09-12T02:06:18.148Z,100349.41
2022-09-12T02:11:21.443Z,100345.56
2022-09-12T02:16:28.081Z,100345.34
2022-09-12T02:21:33.076Z,100348.47
2022-09-12T02:26:38.933Z,100348.72
2022-09-12T02:31:45.702Z,100349.28
2022-09-12T02:36:56.078Z,100345.38
2022-09-12T02:42:00.932Z,100340.47
2022-09-12T02:47:07.174Z,100338.78
2022-09-12T02:52:11.201Z,100332.91
2022-09-12T02:57:21.899Z,100337.00
2022-09-12T03:02:33.730Z,100327.44
2022-09-12T03:07:49.013Z,100331.06
2022-09-12T03:12:59.407Z,100330.63
2022-09-12T03:18:09.108Z,100334.25
2022-09-12T03:23:18.762Z,100331.16
2022-09-12T03:28:23.533Z,100341.91
2022-09-12T03:33:27.308Z,100334.50
2022-09-12T03:38:31.396Z,100341.13
2022-09-12T03:43:33.992Z,100331.94
2022-09-12T03:48:36.885Z,100331.75
2022-09-12T03:53:40.928Z,100329.44
2022-09-12T03:58:43.672Z,100326.00
2022-09-12T04:03:47.751Z,100323.03
2022-09-12T04:08:53.451Z,100330.31
2022-09-12T04:13:56.065Z,100327.56
2022-09-12T04:18:59.434Z,100334.38
2022-09-12T04:24:03.724Z,100340.00
2022-09-12T04:29:06.408Z,100339.34
2022-09-12T04:34:09.096Z,100331.63
2022-09-12T04:39:13.146Z,100340.22
2022-09-12T04:44:16.281Z,100332.28
2022-09-12T04:49:19.395Z,100333.13
2022-09-12T04:54:23.406Z,100344.53
2022-09-12T04:59:26.486Z,100352.25
2022-09-12T05:04:29.332Z,100344.53
2022-09-12T05:09:33.357Z,100348.16
2022-09-12T05:14:36.011Z,100360.50
2022-09-12T05:19:39.138Z,100356.72
2022-09-12T05:24:49.866Z,100353.19
2022-09-12T05:29:53.204Z,100355.13
2022-09-12T05:34:55.914Z,100360.66
2022-09-12T05:40:00.341Z,100357.31
2022-09-12T05:45:02.978Z,100370.19
2022-09-12T05:50:10.764Z,100380.41
2022-09-12T05:55:14.812Z,100387.09
2022-09-12T06:00:19.046Z,100380.47
2022-09-12T06:05:21.755Z,100383.75
2022-09-12T06:10:26.297Z,100389.22
2022-09-12T06:15:28.991Z,100392.88
2022-09-12T06:20:31.593Z,100395.03
2022-09-12T06:25:35.599Z,100391.56
2022-09-12T06:30:38.287Z,100387.81
2022-09-12T06:35:40.958Z,100389.34
2022-09-12T06:40:45.419Z,100387.34
2022-09-12T06:45:50.172Z,100387.22
2022-09-12T06:50:59.592Z,100383.75
2022-09-12T06:56:05.836Z,100385.59
2022-09-12T07:01:10.785Z,100392.28
2022-09-12T07:06:15.547Z,100389.50
2022-09-12T07:11:21.856Z,100398.06
2022-09-12T07:16:24.657Z,100403.31
2022-09-12T07:21:27.787Z,100400.66
2022-09-12T07:26:32.613Z,100399.94
2022-09-12T07:31:35.207Z,100397.56
2022-09-12T07:36:39.161Z,100400.03
2022-09-12T07:41:43.244Z,100409.44
2022-09-12T07:46:46.167Z,100395.63
2022-09-12T07:51:48.773Z,100398.34
2022-09-12T07:56:52.770Z,100397.34
2022-09-12T08:01:55.351Z,100405.47
2022-09-12T08:06:57.995Z,100399.84
2022-09-12T08:12:02.301Z,100415.28
2022-09-12T08:17:05.356Z,100415.84
2022-09-12T08:22:08.230Z,100407.59
2022-09-12T08:27:12.410Z,100407.31
2022-09-12T08:32:15.062Z,100398.88
2022-09-12T08:37:17.755Z,100395.81
2022-09-12T08:42:33.066Z,100405.28
2022-09-12T08:47:37.891Z,100405.44
2022-09-12T08:52:45.373Z,100399.59
2022-09-12T08:57:49.328Z,100406.47
2022-09-12T09:03:06.355Z,100402.81
2022-09-12T09:08:17.855Z,100403.63
2022-09-12T09:13:57.979Z,100405.38
2022-09-12T09:19:05.593Z,100397.41
2022-09-12T09:24:11.226Z,100390.13
2022-09-12T09:29:18.979Z,100382.38
2022-09-12T09:34:23.613Z,100383.63
2022-09-12T09:39:47.488Z,100384.81
2022-09-12T09:44:54.047Z,100377.81
2022-09-12T09:49:56.881Z,100368.94
2022-09-12T09:55:01.685Z,100372.03
2022-09-12T10:00:22.618Z,100365.78
2022-09-12T10:05:25.253Z,100354.13
2022-09-12T10:10:27.992Z,100358.03
2022-09-12T10:15:32.737Z,100347.56
2022-09-12T10:20:36.869Z,100339.56
2022-09-12T10:25:40.121Z,100351.47
2022-09-12T10:30:52.492Z,100345.94
2022-09-12T10:35:55.957Z,100356.38
2022-09-12T10:41:01.323Z,100341.84
2022-09-12T10:46:24.081Z,100344.09
2022-09-12T10:51:29.209Z,100345.13
2022-09-12T10:56:33.529Z,100330.53
2022-09-12T11:01:41.800Z,100327.53
2022-09-12T11:06:55.259Z,100326.69
2022-09-12T11:12:04.602Z,100320.59
2022-09-12T11:17:18.222Z,100313.75
2022-09-12T11:22:31.870Z,100319.44
2022-09-12T11:27:44.992Z,100317.28
2022-09-12T11:33:13.926Z,100309.69
2022-09-12T11:38:52.181Z,100308.91
2022-09-12T11:43:58.757Z,100310.44
2022-09-12T11:49:07.848Z,100300.41
2022-09-12T11:54:20.821Z,100298.56
2022-09-12T11:59:32.197Z,100302.31
2022-09-12T12:04:41.275Z,100297.00
2022-09-12T12:09:49.215Z,100297.25
2022-09-12T12:14:53.429Z,100303.31
2022-09-12T12:20:06.678Z,100285.88
2022-09-12T12:25:29.733Z,100290.94
2022-09-12T12:31:03.618Z,100283.69
2022-09-12T12:36:09.683Z,100277.88
2022-09-12T12:41:46.521Z,100272.44
2022-09-12T12:47:09.946Z,100270.31
2022-09-12T12:52:19.369Z,100271.84
2022-09-12T12:57:35.958Z,100269.28
2022-09-12T13:02:42.211Z,100259.69
2022-09-12T13:07:48.059Z,100260.97
2022-09-12T13:12:52.189Z,100249.72
2022-09-12T13:17:55.109Z,100244.78
2022-09-12T13:22:59.454Z,100234.41
2022-09-12T13:28:07.792Z,100236.63
2022-09-12T13:33:17.853Z,100230.72
2022-09-12T13:38:27.552Z,100226.41
2022-09-12T13:43:38.323Z,100222.66
2022-09-12T13:48:41.764Z,100211.81
2022-09-12T13:53:47.374Z,100213.59
2022-09-12T13:58:55.706Z,100209.91
2022-09-12T14:04:16.154Z,100211.38
2022-09-12T14:09:25.438Z,100203.91
2022-09-12T14:14:31.700Z,100205.25
2022-09-12T14:19:34.593Z,100203.47
2022-09-12T14:24:39.144Z,100195.59
2022-09-12T14:29:44.018Z,100189.09
2022-09-12T14:35:05.296Z,100178.34
2022-09-12T14:40:17.550Z,100169.28
2022-09-12T14:45:26.199Z,100172.06
2022-09-12T14:50:31.460Z,100166.72
2022-09-12T14:55:42.258Z,100164.25
2022-09-12T15:00:59.814Z,100153.72
2022-09-12T15:06:03.976Z,100160.31
2022-09-12T15:11:08.627Z,100160.63
2022-09-12T15:16:12.314Z,100155.13
2022-09-12T15:21:18.658Z,100157.19
2022-09-12T15:26:24.034Z,100149.06
2022-09-12T15:31:29.883Z,100159.28
2022-09-12T15:36:32.772Z,100152.13
2022-09-12T15:41:39.017Z,100145.81
2022-09-12T15:46:42.092Z,100158.88
2022-09-12T15:51:44.771Z,100148.91
2022-09-12T15:56:49.006Z,100154.97
2022-09-12T16:01:52.076Z,100140.00
2022-09-12T16:06:56.148Z,100149.03
2022-09-12T16:12:00.187Z,100143.75
2022-09-12T16:17:03.019Z,100138.66
2022-09-12T16:22:05.952Z,100136.59
2022-09-12T16:27:09.877Z,100123.38
2022-09-12T16:32:12.503Z,100123.84
2022-09-12T16:37:15.096Z,100119.84
2022-09-12T16:42:19.779Z,100111.31
2022-09-12T16:47:22.822Z,100114.28
2022-09-12T16:52:25.543Z,100107.84
2022-09-12T16:57:29.507Z,100102.75
2022-09-12T17:02:32.185Z,100096.09
2022-09-12T17:07:35.191Z,100094.91
2022-09-12T17:12:39.295Z,100091.59
2022-09-12T17:17:42.011Z,100077.41
2022-09-12T17:22:44.779Z,100086.53
2022-09-12T17:27:48.753Z,100078.56
2022-09-12T17:32:52.482Z,100080.47
2022-09-12T17:37:55.429Z,100082.75
2022-09-12T17:42:59.515Z,100089.75
2022-09-12T17:48:02.557Z,100085.88
2022-09-12T17:53:06.413Z,100090.22
2022-09-12T17:58:10.866Z,100080.16
2022-09-12T18:03:13.901Z,100090.81
2022-09-12T18:08:16.637Z,100090.16
2022-09-12T18:13:20.905Z,100082.63
2022-09-12T18:18:23.831Z,100068.09
2022-09-12T18:23:26.910Z,100073.41
2022-09-12T18:28:32.980Z,100072.56
2022-09-12T18:33:35.892Z,100078.28
2022-09-12T18:38:39.385Z,100086.84
2022-09-12T18:43:43.387Z,100077.41
2022-09-12T18:48:46.780Z,100079.41
2022-09-12T18:53:51.929Z,100079.19
2022-09-12T18:58:57.564Z,100077.94
2022-09-12T19:04:04.617Z,100080.19
2022-09-12T19:09:09.021Z,100075.66
2022-09-12T19:14:13.066Z,100075.81
2022-09-12T19:19:15.749Z,100064.97
2022-09-12T19:24:18.531Z,100060.63
2022-09-12T19:29:22.507Z,100066.34
2022-09-12T19:34:25.143Z,100057.50
2022-09-12T19:39:27.910Z,100060.97
2022-09-12T19:44:32.433Z,100060.09
2022-09-12T19:49:35.033Z,100051.28
2022-09-12T19:54:37.829Z,100054.72
2022-09-12T19:59:42.695Z,100054.06
2022-09-12T20:04:45.396Z,100054.59
2022-09-12T20:09:48.048Z,100047.84
2022-09-12T20:14:52.013Z,100035.16
2022-09-12T20:19:54.686Z,100043.34
2022-09-12T20:24:57.317Z,100035.78
2022-09-12T20:30:01.272Z,100036.63
2022-09-12T20:35:04.106Z,100035.59
2022-09-12T20:40:07.817Z,100038.44
2022-09-12T20:45:12.393Z,100031.50
2022-09-12T20:50:15.381Z,100035.38
2022-09-12T20:55:18.190Z,100031.25
2022-09-12T21:00:22.274Z,100028.81
2022-09-12T21:05:24.907Z,100023.09
2022-09-12T21:10:27.705Z,100011.44
2022-09-12T21:15:31.679Z,100006.31
2022-09-12T21:20:34.572Z,100004.50
2022-09-12T21:25:37.246Z,99992.63
2022-09-12T21:30:41.205Z,99996.28
2022-09-12T21:35:44.390Z,99991.78
2022-09-12T21:40:47.627Z,99982.63
2022-09-12T21:45:58.102Z,99974.41
2022-09-12T21:51:01.384Z,99976.44
2022-09-12T21:56:05.604Z,99962.94
2022-09-12T22:01:12.560Z,99960.72
2022-09-12T22:06:17.780Z,99959.25
2022-09-12T22:11:23.693Z,99950.88
2022-09-12T22:16:27.872Z,99945.16
2022-09-12T22:21:30.501Z,99938.97
2022-09-12T22:26:34.941Z,99937.53
2022-09-12T22:31:39.129Z,99934.47
2022-09-12T22:36:41.953Z,99929.72
2022-09-12T22:41:44.683Z,99917.66
2022-09-12T22:46:48.652Z,99914.06
2022-09-12T22:51:51.328Z,99918.28
2022-09-12T22:56:54.019Z,99914.94
2022-09-12T23:01:57.973Z,99908.84
2022-09-12T23:07:00.635Z,99900.84
2022-09-12T23:12:03.827Z,99895.72
2022-09-12T23:17:08.074Z,99880.78
2022-09-12T23:22:10.713Z,99895.03
2022-09-12T23:27:13.340Z,99891.75
2022-09-12T23:32:17.919Z,99893.53
2022-09-12T23:37:21.642Z,99897.13
2022-09-12T23:42:24.389Z,99888.94
2022-09-12T23:47:28.279Z,99875.28
2022-09-12T23:52:30.868Z,99875.44
2022-09-12T23:57:33.449Z,99869.09
